Dandridge, Tennessee
Current Conditions -  °F | °C
As of 5:15 AM on Monday 26 Jan 2015 (Local Time) from KMOR Reporting Station
Overcast Overcast  
Wind Chill: 32°   Ceiling: 2200
Heat Index: 39°   Visibility: 10mi
Dew Point: 37°   Wind: 12mph
Humidity: 93%   Direction: 280°W
Pressure: 29.66"   Gusts: NA
Location:  36.02°N, 83.41°W
Report Text: KMOR 261015Z AUTO 28010KT 10SM BKN022 OVC050 04/03 A2966 RMK
Loading
Personal Weather Stations






























Interactive Weather Map New forecast layout! Learn more

10-Day Weather Forecast

Advertisements
Track Severe Weather on mobile